createdAt,value
2018-06-25T00:00:19.614Z,12.67
2018-06-25T00:02:48.046Z,14.93
2018-06-25T00:05:16.464Z,16.67
2018-06-25T00:07:44.888Z,13.17
2018-06-25T00:10:13.345Z,12.70
2018-06-25T00:12:41.744Z,14.30
2018-06-25T00:15:10.167Z,15.83
2018-06-25T00:17:38.600Z,16.57
2018-06-25T00:20:07.056Z,15.87
2018-06-25T00:22:35.684Z,14.80
2018-06-25T00:25:04.377Z,17.50
2018-06-25T00:27:32.798Z,17.77
2018-06-25T00:30:01.265Z,17.40
2018-06-25T00:32:29.669Z,18.53
2018-06-25T00:34:58.222Z,20.93
2018-06-25T00:37:26.662Z,20.17
2018-06-25T00:39:55.081Z,20.10
2018-06-25T00:42:23.527Z,22.67
2018-06-25T00:44:51.961Z,19.00
2018-06-25T00:47:20.389Z,17.23
2018-06-25T00:49:49.853Z,16.57
2018-06-25T00:52:18.337Z,17.70
2018-06-25T00:54:46.806Z,17.17
2018-06-25T00:57:15.231Z,17.63
2018-06-25T00:59:51.015Z,14.53
2018-06-25T01:02:19.881Z,13.50
2018-06-25T01:04:48.324Z,16.40
2018-06-25T01:07:17.347Z,14.60
2018-06-25T01:09:45.797Z,15.27
2018-06-25T01:12:14.678Z,14.13
2018-06-25T01:14:43.612Z,15.37
2018-06-25T01:17:12.045Z,12.60
2018-06-25T01:19:40.539Z,14.40
2018-06-25T01:22:10.127Z,12.33
2018-06-25T01:24:39.024Z,12.20
2018-06-25T01:27:08.582Z,11.60
2018-06-25T01:29:38.018Z,11.13
2018-06-25T01:32:06.505Z,13.33
2018-06-25T01:34:35.353Z,13.13
2018-06-25T01:37:04.153Z,13.33
2018-06-25T01:39:32.682Z,11.70
2018-06-25T01:42:01.205Z,15.50
2018-06-25T01:44:29.789Z,12.63
2018-06-25T01:46:58.508Z,8.97
2018-06-25T01:49:26.969Z,12.20
2018-06-25T01:51:55.680Z,13.40
2018-06-25T01:54:24.112Z,11.77
2018-06-25T01:56:52.561Z,10.50
2018-06-25T01:59:21.028Z,13.43
2018-06-25T02:01:49.435Z,12.37
2018-06-25T02:04:17.857Z,14.83
2018-06-25T02:06:46.263Z,17.80
2018-06-25T02:09:14.709Z,18.13
2018-06-25T02:11:43.151Z,18.67
2018-06-25T02:14:11.578Z,16.63
2018-06-25T02:16:40.090Z,13.80
2018-06-25T02:19:08.696Z,9.97
2018-06-25T02:21:37.096Z,8.13
2018-06-25T02:24:05.702Z,7.40
2018-06-25T02:26:34.347Z,7.07
2018-06-25T02:29:02.757Z,4.43
2018-06-25T02:31:31.197Z,7.67
2018-06-25T02:33:59.609Z,10.20
2018-06-25T02:36:28.035Z,11.17
2018-06-25T02:38:56.461Z,9.33
2018-06-25T02:41:25.268Z,8.83
2018-06-25T02:43:53.901Z,8.97
2018-06-25T02:46:22.288Z,9.47
2018-06-25T02:48:50.684Z,7.23
2018-06-25T02:51:19.100Z,9.03
2018-06-25T02:53:47.505Z,7.77
2018-06-25T02:56:15.987Z,8.97
2018-06-25T02:58:44.372Z,11.07
2018-06-25T03:01:12.872Z,8.83
2018-06-25T03:03:41.305Z,9.30
2018-06-25T03:06:09.689Z,12.07
2018-06-25T03:08:38.309Z,12.83
2018-06-25T03:11:06.872Z,10.30
2018-06-25T03:13:35.323Z,9.47
2018-06-25T03:16:03.812Z,9.87
2018-06-25T03:18:32.187Z,14.00
2018-06-25T03:21:00.612Z,9.90
2018-06-25T03:23:29.024Z,10.43
2018-06-25T03:25:57.421Z,9.37
2018-06-25T03:28:25.900Z,7.10
2018-06-25T03:30:54.276Z,8.87
2018-06-25T03:33:22.696Z,10.37
2018-06-25T03:35:51.647Z,11.43
2018-06-25T03:38:20.116Z,9.10
2018-06-25T03:40:48.659Z,9.57
2018-06-25T03:43:17.104Z,8.60
2018-06-25T03:45:45.703Z,7.87
2018-06-25T03:48:14.200Z,8.00
2018-06-25T03:50:42.594Z,10.77
2018-06-25T03:53:11.015Z,11.90
2018-06-25T03:55:39.409Z,7.17
2018-06-25T03:58:08.524Z,7.83
2018-06-25T04:00:37.130Z,8.40
2018-06-25T04:03:05.573Z,7.10
2018-06-25T04:05:34.009Z,7.70
2018-06-25T04:08:02.392Z,7.60
2018-06-25T04:10:30.890Z,8.70
2018-06-25T04:12:59.300Z,8.60
2018-06-25T04:15:27.725Z,8.53
2018-06-25T04:17:56.131Z,8.77
2018-06-25T04:20:25.059Z,8.63
2018-06-25T04:22:53.457Z,7.20
2018-06-25T04:25:21.861Z,8.50
2018-06-25T04:27:50.314Z,8.50
2018-06-25T04:30:18.748Z,9.57
2018-06-25T04:32:47.145Z,10.47
2018-06-25T04:35:15.837Z,9.33
2018-06-25T04:37:44.457Z,9.17
2018-06-25T04:40:13.021Z,9.40
2018-06-25T04:42:41.793Z,8.70
2018-06-25T04:45:10.343Z,8.13
2018-06-25T04:47:39.044Z,9.20
2018-06-25T04:50:07.663Z,9.53
2018-06-25T04:52:36.338Z,9.53
2018-06-25T04:55:05.057Z,8.63
2018-06-25T04:57:33.676Z,8.70
2018-06-25T05:00:02.178Z,8.83
2018-06-25T05:02:30.996Z,10.23
2018-06-25T05:04:59.526Z,8.77
2018-06-25T05:07:28.169Z,7.63
2018-06-25T05:09:57.010Z,7.97
2018-06-25T05:12:25.611Z,7.70
2018-06-25T05:14:54.338Z,7.97
2018-06-25T05:17:23.105Z,10.00
2018-06-25T05:19:51.720Z,7.80
2018-06-25T05:22:20.294Z,7.37
2018-06-25T05:24:48.832Z,8.43
2018-06-25T05:27:17.707Z,9.00
2018-06-25T05:29:46.562Z,12.20
2018-06-25T05:32:15.208Z,9.27
2018-06-25T05:34:43.826Z,8.53
2018-06-25T05:37:12.533Z,7.23
2018-06-25T05:39:41.283Z,7.63
2018-06-25T05:42:14.195Z,6.70
2018-06-25T05:44:43.046Z,6.23
2018-06-25T05:47:11.623Z,10.77
2018-06-25T05:49:40.442Z,6.57
2018-06-25T05:52:09.093Z,5.87
2018-06-25T05:54:37.713Z,7.87
2018-06-25T05:57:06.431Z,10.03
2018-06-25T05:59:35.995Z,6.33
2018-06-25T06:02:05.072Z,7.40
2018-06-25T06:04:33.721Z,6.00
2018-06-25T06:07:02.488Z,5.37
2018-06-25T06:09:32.262Z,5.80
2018-06-25T06:12:00.912Z,8.03
2018-06-25T06:14:29.575Z,5.73
2018-06-25T06:16:59.454Z,6.03
2018-06-25T06:19:28.238Z,5.30
2018-06-25T06:21:57.098Z,6.20
2018-06-25T06:24:26.479Z,6.03
2018-06-25T06:26:55.748Z,6.30
2018-06-25T06:29:25.177Z,5.10
2018-06-25T06:31:54.408Z,7.33
2018-06-25T06:34:23.746Z,7.90
2018-06-25T06:36:53.364Z,8.53
2018-06-25T06:39:22.644Z,6.60
2018-06-25T06:41:52.648Z,5.80
2018-06-25T06:44:21.578Z,8.40
2018-06-25T06:46:50.641Z,7.00
2018-06-25T06:49:19.760Z,8.77
2018-06-25T06:51:48.717Z,6.47
2018-06-25T06:54:17.777Z,7.87
2018-06-25T06:56:46.594Z,9.17
2018-06-25T06:59:15.420Z,8.40
2018-06-25T07:01:44.890Z,7.33
2018-06-25T07:04:14.017Z,8.90
2018-06-25T07:06:42.785Z,11.23
2018-06-25T07:09:13.046Z,8.20
2018-06-25T07:11:42.276Z,8.70
2018-06-25T07:14:11.022Z,9.63
2018-06-25T07:16:40.686Z,8.60
2018-06-25T07:19:09.721Z,10.17
2018-06-25T07:21:38.761Z,12.37
2018-06-25T07:24:07.424Z,12.20
2018-06-25T07:26:35.973Z,14.97
2018-06-25T07:29:04.708Z,16.43
2018-06-25T07:31:33.256Z,16.17
2018-06-25T07:34:01.741Z,17.23
2018-06-25T07:36:30.251Z,16.80
2018-06-25T07:38:58.701Z,19.80
2018-06-25T07:41:27.144Z,20.17
2018-06-25T07:43:55.748Z,21.27
2018-06-25T07:46:24.273Z,19.70
2018-06-25T07:48:53.055Z,23.13
2018-06-25T07:51:21.588Z,21.40
2018-06-25T07:53:50.142Z,25.03
2018-06-25T07:56:18.888Z,22.10
2018-06-25T07:58:47.476Z,22.03
2018-06-25T08:01:16.109Z,23.73
2018-06-25T08:03:44.817Z,20.77
2018-06-25T08:06:13.634Z,22.80
2018-06-25T08:08:42.059Z,27.33
2018-06-25T08:11:10.716Z,24.53
2018-06-25T08:13:39.191Z,29.10
2018-06-25T08:16:07.789Z,28.97
2018-06-25T08:18:36.369Z,26.53
2018-06-25T08:21:04.973Z,23.93
2018-06-25T08:23:33.420Z,23.63
2018-06-25T08:26:01.985Z,25.60
2018-06-25T08:28:30.436Z,24.13
2018-06-25T08:30:59.159Z,22.37
2018-06-25T08:33:27.548Z,19.93
2018-06-25T08:35:56.031Z,25.77
2018-06-25T08:38:24.472Z,20.17
2018-06-25T08:40:52.974Z,19.00
2018-06-25T08:43:21.682Z,18.83
2018-06-25T08:45:50.189Z,21.47
2018-06-25T08:48:18.617Z,19.33
2018-06-25T08:50:47.183Z,21.40
2018-06-25T08:53:15.678Z,20.87
2018-06-25T08:55:44.134Z,19.10
2018-06-25T08:58:12.623Z,20.53
2018-06-25T09:00:41.102Z,20.80
2018-06-25T09:03:09.640Z,25.50
2018-06-25T09:05:38.031Z,19.33
2018-06-25T09:08:06.490Z,25.60
2018-06-25T09:10:34.977Z,24.40
2018-06-25T09:13:03.590Z,24.73
2018-06-25T09:15:32.114Z,25.00
2018-06-25T09:18:00.418Z,22.87
2018-06-25T09:20:29.608Z,24.63
2018-06-25T09:22:58.975Z,23.50
2018-06-25T09:25:27.504Z,19.93
2018-06-25T09:28:00.355Z,20.43
2018-06-25T09:30:28.836Z,25.67
2018-06-25T09:32:57.394Z,18.50
2018-06-25T09:35:26.016Z,22.23
2018-06-25T09:37:55.707Z,21.33
2018-06-25T09:40:24.590Z,22.17
2018-06-25T09:42:53.259Z,15.63
2018-06-25T09:45:22.515Z,19.30
2018-06-25T09:47:52.032Z,13.80
2018-06-25T09:50:20.768Z,12.73
2018-06-25T09:52:49.392Z,15.63
2018-06-25T09:55:18.109Z,12.73
2018-06-25T09:57:46.921Z,15.07
2018-06-25T10:00:21.079Z,16.70
2018-06-25T10:02:49.852Z,15.60
2018-06-25T10:05:18.503Z,13.43
2018-06-25T10:07:47.768Z,15.90
2018-06-25T10:10:16.438Z,15.80
2018-06-25T10:12:45.848Z,14.87
2018-06-25T10:15:14.409Z,12.40
2018-06-25T10:17:43.239Z,15.90
2018-06-25T10:20:11.804Z,15.47
2018-06-25T10:22:40.446Z,12.23
2018-06-25T10:25:09.056Z,39.70
2018-06-25T10:27:37.719Z,12.00
2018-06-25T10:30:06.552Z,13.97
2018-06-25T10:32:35.429Z,9.97
2018-06-25T10:35:04.229Z,8.67
2018-06-25T10:37:32.874Z,10.47
2018-06-25T10:40:01.569Z,13.17
2018-06-25T10:42:30.126Z,9.73
2018-06-25T10:44:58.685Z,11.00
2018-06-25T10:47:27.411Z,9.90
2018-06-25T10:49:55.965Z,14.20
2018-06-25T10:52:24.667Z,9.83
2018-06-25T10:54:53.424Z,7.93
2018-06-25T10:57:22.114Z,9.23
2018-06-25T10:59:50.871Z,12.27
2018-06-25T11:02:19.288Z,16.37
2018-06-25T11:04:47.781Z,19.93
2018-06-25T11:07:16.485Z,20.97
2018-06-25T11:09:44.929Z,23.10
2018-06-25T11:12:13.390Z,21.87
2018-06-25T11:14:41.855Z,18.20
2018-06-25T11:17:10.416Z,16.27
2018-06-25T11:19:38.839Z,16.13
2018-06-25T11:22:07.391Z,18.90
2018-06-25T11:24:35.801Z,18.23
2018-06-25T11:27:04.433Z,19.30
2018-06-25T11:29:32.799Z,16.40
2018-06-25T11:32:01.202Z,17.63
2018-06-25T11:34:29.805Z,21.40
2018-06-25T11:36:58.188Z,17.50
2018-06-25T11:39:26.838Z,17.50
2018-06-25T11:41:55.370Z,15.53
2018-06-25T11:44:23.877Z,15.57
2018-06-25T11:46:52.678Z,16.03
2018-06-25T11:49:21.178Z,16.17
2018-06-25T11:51:49.698Z,18.70
2018-06-25T11:54:18.069Z,15.87
2018-06-25T11:56:47.054Z,16.27
2018-06-25T11:59:15.441Z,14.00
2018-06-25T12:01:44.215Z,14.07
2018-06-25T12:04:12.609Z,13.63
2018-06-25T12:06:41.046Z,13.53
2018-06-25T12:09:10.797Z,12.63
2018-06-25T12:11:39.339Z,13.53
2018-06-25T12:14:08.716Z,13.27
2018-06-25T12:16:37.662Z,11.83
2018-06-25T12:19:06.168Z,10.00
2018-06-25T12:21:34.558Z,8.90
2018-06-25T12:24:03.005Z,9.73
2018-06-25T12:26:32.540Z,12.43
2018-06-25T12:29:00.932Z,10.73
2018-06-25T12:31:29.370Z,10.67
2018-06-25T12:33:57.800Z,11.00
2018-06-25T12:36:26.221Z,8.83
2018-06-25T12:38:54.701Z,11.13
2018-06-25T12:41:23.435Z,11.03
2018-06-25T12:43:51.798Z,11.07
2018-06-25T12:46:20.261Z,10.30
2018-06-25T12:48:48.678Z,9.77
2018-06-25T12:51:17.092Z,12.07
2018-06-25T12:53:45.627Z,10.73
2018-06-25T12:56:14.046Z,12.37
2018-06-25T12:58:42.460Z,9.93
2018-06-25T13:01:11.118Z,7.97
2018-06-25T13:03:39.549Z,8.97
2018-06-25T13:06:07.965Z,9.43
2018-06-25T13:08:36.624Z,12.00
2018-06-25T13:11:05.078Z,10.03
2018-06-25T13:13:33.517Z,7.17
2018-06-25T13:16:01.979Z,8.40
2018-06-25T13:18:30.404Z,8.97
2018-06-25T13:20:58.892Z,9.87
2018-06-25T13:23:27.342Z,8.03
2018-06-25T13:25:55.899Z,7.97
2018-06-25T13:28:24.342Z,9.27
2018-06-25T13:30:52.883Z,7.73
2018-06-25T13:33:21.401Z,9.63
2018-06-25T13:35:49.913Z,7.53
2018-06-25T13:38:19.152Z,6.40
2018-06-25T13:40:47.471Z,5.57
2018-06-25T13:43:15.911Z,9.13
2018-06-25T13:45:44.826Z,8.53
2018-06-25T13:48:13.336Z,7.07
2018-06-25T13:50:41.809Z,6.77
2018-06-25T13:53:10.294Z,5.23
2018-06-25T13:55:38.911Z,7.33
2018-06-25T13:58:07.411Z,6.40
2018-06-25T14:00:36.085Z,6.10
2018-06-25T14:03:04.564Z,8.10
2018-06-25T14:05:33.015Z,6.73
2018-06-25T14:08:01.545Z,5.80
2018-06-25T14:10:30.041Z,5.90
2018-06-25T14:12:58.501Z,6.73
2018-06-25T14:15:26.985Z,7.43
2018-06-25T14:17:55.443Z,6.37
2018-06-25T14:20:24.156Z,6.17
2018-06-25T14:22:52.566Z,8.10
2018-06-25T14:28:19.241Z,7.53
2018-06-25T14:30:52.920Z,5.73
2018-06-25T14:33:27.278Z,4.43
2018-06-25T14:35:55.733Z,3.93
2018-06-25T14:38:26.955Z,8.03
2018-06-25T14:40:55.407Z,6.40
2018-06-25T14:43:23.861Z,6.27
2018-06-25T14:45:52.270Z,8.73
2018-06-25T14:48:20.984Z,5.13
2018-06-25T14:50:49.352Z,6.70
2018-06-25T14:53:17.904Z,6.80
2018-06-25T14:55:46.398Z,7.63
2018-06-25T14:58:14.856Z,15.40
2018-06-25T15:00:43.286Z,9.03
2018-06-25T15:03:11.716Z,7.60
2018-06-25T15:05:40.280Z,6.40
2018-06-25T15:08:08.839Z,7.50
2018-06-25T15:10:37.289Z,6.43
2018-06-25T15:13:05.832Z,11.03
2018-06-25T15:15:34.222Z,10.13
2018-06-25T15:18:02.676Z,6.37
2018-06-25T15:20:31.094Z,7.37
2018-06-25T15:22:59.487Z,5.93
2018-06-25T15:25:27.977Z,8.40
2018-06-25T15:27:56.423Z,7.23
2018-06-25T15:30:24.897Z,5.60
2018-06-25T15:32:53.328Z,7.30
2018-06-25T15:35:21.743Z,9.80
2018-06-25T15:37:50.236Z,6.00
2018-06-25T15:40:18.715Z,7.20
2018-06-25T15:42:47.137Z,12.83
2018-06-25T15:45:15.659Z,8.37
2018-06-25T15:47:44.146Z,10.97
2018-06-25T15:50:12.595Z,6.97
2018-06-25T15:52:41.052Z,6.33
2018-06-25T15:55:09.506Z,7.03
2018-06-25T15:57:38.909Z,8.40
2018-06-25T16:00:07.403Z,11.07
2018-06-25T16:02:35.789Z,7.03
2018-06-25T16:05:04.321Z,9.17
2018-06-25T16:07:32.762Z,5.53
2018-06-25T16:10:01.196Z,8.77
2018-06-25T16:12:30.579Z,7.33
2018-06-25T16:14:59.020Z,7.17
2018-06-25T16:17:27.461Z,10.40
2018-06-25T16:19:55.937Z,7.07
2018-06-25T16:22:24.397Z,7.97
2018-06-25T16:24:53.084Z,6.97
2018-06-25T16:27:21.581Z,6.53
2018-06-25T16:29:50.096Z,7.20
2018-06-25T16:32:18.584Z,4.67
2018-06-25T16:34:47.010Z,6.33
2018-06-25T16:37:15.550Z,6.40
2018-06-25T16:39:43.978Z,8.47
2018-06-25T16:42:12.477Z,6.30
2018-06-25T16:44:40.902Z,5.83
2018-06-25T16:47:09.515Z,5.33
2018-06-25T16:49:37.932Z,5.73
2018-06-25T16:52:06.570Z,7.37
2018-06-25T16:54:35.081Z,6.73
2018-06-25T16:57:03.556Z,5.53
2018-06-25T16:59:32.102Z,7.43
2018-06-25T17:02:01.386Z,7.07
2018-06-25T17:04:29.899Z,8.27
2018-06-25T17:06:58.326Z,6.30
2018-06-25T17:09:26.820Z,5.60
2018-06-25T17:11:55.248Z,5.50
2018-06-25T17:14:23.669Z,5.10
2018-06-25T17:16:52.167Z,6.53
2018-06-25T17:19:20.596Z,5.57
2018-06-25T17:21:49.014Z,5.67
2018-06-25T17:24:17.489Z,5.77
2018-06-25T17:26:45.921Z,3.13
2018-06-25T17:29:14.330Z,4.53
2018-06-25T17:31:42.860Z,5.97
2018-06-25T17:34:11.318Z,4.93
2018-06-25T17:36:39.750Z,3.63
2018-06-25T17:39:08.659Z,6.10
2018-06-25T17:41:37.095Z,5.83
2018-06-25T17:44:05.591Z,7.73
2018-06-25T17:46:34.178Z,7.53
2018-06-25T17:49:02.652Z,4.43
2018-06-25T17:51:31.290Z,5.70
2018-06-25T17:53:59.746Z,4.03
2018-06-25T17:56:28.252Z,3.17
2018-06-25T17:58:56.858Z,4.30
2018-06-25T18:01:25.388Z,5.13
2018-06-25T18:03:53.934Z,3.53
2018-06-25T18:06:22.502Z,5.13
2018-06-25T18:08:51.451Z,8.03
2018-06-25T18:11:19.929Z,4.50
2018-06-25T18:13:48.380Z,5.30
2018-06-25T18:16:16.809Z,6.97
2018-06-25T18:18:45.384Z,6.63
2018-06-25T18:21:13.927Z,4.80
2018-06-25T18:23:42.497Z,5.97
2018-06-25T18:26:10.967Z,6.07
2018-06-25T18:28:39.457Z,4.97
2018-06-25T18:31:08.093Z,3.13
2018-06-25T18:33:36.617Z,4.17
2018-06-25T18:36:05.122Z,5.67
2018-06-25T18:38:33.593Z,9.53
2018-06-25T18:41:02.081Z,3.63
2018-06-25T18:43:30.513Z,5.03
2018-06-25T18:45:58.951Z,4.97
2018-06-25T18:48:27.431Z,7.43
2018-06-25T18:50:55.970Z,5.07
2018-06-25T18:53:24.437Z,6.27
2018-06-25T18:55:52.906Z,5.20
2018-06-25T18:58:21.417Z,6.23
2018-06-25T19:00:50.841Z,4.30
2018-06-25T19:03:19.283Z,5.23
2018-06-25T19:05:47.828Z,4.50
2018-06-25T19:08:16.203Z,3.63
2018-06-25T19:10:44.662Z,4.50
2018-06-25T19:13:13.236Z,4.80
2018-06-25T19:15:41.716Z,5.00
2018-06-25T19:18:10.214Z,6.47
2018-06-25T19:20:38.682Z,8.27
2018-06-25T19:23:07.148Z,4.10
2018-06-25T19:25:35.872Z,4.13
2018-06-25T19:28:05.005Z,3.43
2018-06-25T19:30:33.461Z,4.27
2018-06-25T19:33:01.946Z,7.23
2018-06-25T19:35:30.406Z,4.07
2018-06-25T19:37:59.057Z,5.83
2018-06-25T19:40:28.179Z,5.40
2018-06-25T19:42:57.092Z,4.80
2018-06-25T19:45:25.625Z,2.83
2018-06-25T19:47:54.081Z,3.70
2018-06-25T19:50:22.680Z,6.30
2018-06-25T19:52:51.115Z,6.93
2018-06-25T19:55:19.612Z,8.00
2018-06-25T19:57:48.079Z,4.27
2018-06-25T20:00:16.572Z,5.40
2018-06-25T20:02:45.126Z,4.37
2018-06-25T20:05:14.569Z,5.57
2018-06-25T20:07:43.280Z,4.27
2018-06-25T20:10:12.049Z,3.97
2018-06-25T20:12:40.520Z,6.07
2018-06-25T20:15:09.143Z,6.10
2018-06-25T20:17:37.619Z,4.23
2018-06-25T20:20:07.006Z,4.33
2018-06-25T20:22:35.586Z,3.70
2018-06-25T20:25:04.976Z,4.53
2018-06-25T20:27:33.478Z,5.00
2018-06-25T20:30:01.920Z,4.53
2018-06-25T20:45:19.968Z,3.67
2018-06-25T20:47:48.473Z,4.87
2018-06-25T20:50:16.962Z,5.27
2018-06-25T20:52:45.466Z,5.03
2018-06-25T20:55:13.965Z,3.67
2018-06-25T20:57:42.432Z,5.67
2018-06-25T21:00:10.933Z,4.53
2018-06-25T21:02:39.415Z,4.67
2018-06-25T21:05:07.881Z,3.27
2018-06-25T21:07:36.319Z,5.77
2018-06-25T21:10:04.786Z,6.70
2018-06-25T21:12:33.284Z,5.13
2018-06-25T21:15:01.807Z,5.63
2018-06-25T21:17:30.393Z,7.53
2018-06-25T21:19:59.515Z,5.10
2018-06-25T21:22:28.064Z,6.30
2018-06-25T21:24:56.546Z,5.63
2018-06-25T21:27:25.001Z,4.67
2018-06-25T21:29:53.423Z,4.73
2018-06-25T21:32:21.844Z,5.77
2018-06-25T21:34:50.315Z,6.07
2018-06-25T21:37:18.754Z,7.00
2018-06-25T21:39:47.225Z,5.30
2018-06-25T21:42:15.804Z,5.17
2018-06-25T21:44:44.271Z,6.13
2018-06-25T21:47:12.789Z,5.37
2018-06-25T21:49:41.281Z,6.63
2018-06-25T21:52:09.765Z,6.30
2018-06-25T21:54:38.285Z,7.97
2018-06-25T21:57:06.754Z,5.27
2018-06-25T21:59:35.258Z,7.00
2018-06-25T22:02:03.760Z,6.47
2018-06-25T22:04:32.747Z,5.43
2018-06-25T22:07:01.246Z,8.63
2018-06-25T22:09:29.700Z,9.57
2018-06-25T22:11:58.135Z,10.27
2018-06-25T22:14:26.658Z,8.47
2018-06-25T22:16:55.161Z,6.77
2018-06-25T22:19:23.602Z,6.50
2018-06-25T22:21:52.054Z,8.37
2018-06-25T22:24:20.585Z,9.37
2018-06-25T22:26:49.015Z,10.40
2018-06-25T22:29:17.533Z,6.57
2018-06-25T22:31:46.002Z,10.40
2018-06-25T22:34:14.457Z,9.03
2018-06-25T22:36:42.925Z,9.00
2018-06-25T22:39:12.240Z,7.40
2018-06-25T22:41:41.445Z,7.10
2018-06-25T22:44:11.626Z,10.70
2018-06-25T22:46:41.012Z,10.83
2018-06-25T22:49:10.604Z,5.73
2018-06-25T22:51:39.035Z,6.53
2018-06-25T22:54:08.784Z,11.27
2018-06-25T22:56:37.233Z,9.00
2018-06-25T22:59:06.102Z,10.10
2018-06-25T23:01:34.557Z,9.40
2018-06-25T23:04:03.028Z,10.10
2018-06-25T23:06:31.505Z,6.40
2018-06-25T23:08:59.898Z,9.20
2018-06-25T23:11:28.359Z,8.97
2018-06-25T23:13:56.741Z,9.57
2018-06-25T23:16:25.209Z,8.77
2018-06-25T23:18:53.641Z,8.57
2018-06-25T23:21:22.064Z,9.10
2018-06-25T23:23:50.461Z,10.97
2018-06-25T23:26:18.894Z,11.63
2018-06-25T23:28:47.313Z,11.47
2018-06-25T23:31:15.741Z,9.90
2018-06-25T23:33:44.185Z,12.23
2018-06-25T23:36:12.590Z,15.03
2018-06-25T23:38:40.961Z,10.43
2018-06-25T23:41:09.436Z,12.73
2018-06-25T23:43:37.855Z,13.07
2018-06-25T23:46:06.301Z,11.23
2018-06-25T23:48:34.748Z,11.37
2018-06-25T23:51:03.179Z,12.17
2018-06-25T23:53:31.624Z,7.60
2018-06-25T23:56:00.093Z,12.87
2018-06-25T23:58:28.536Z,12.90
